sensor_id;sensor_type;location;lat;lon;timestamp;pressure;altitude;pressure_sealevel;temperature;humidity
55315;BME280;41619;42.816;23.226;2022-09-17T00:00:41;94675.19;;;15.58;81.62
55315;BME280;41619;42.816;23.226;2022-09-17T00:03:07;94676.78;;;15.59;81.59
55315;BME280;41619;42.816;23.226;2022-09-17T00:05:34;94666.88;;;15.61;81.59
55315;BME280;41619;42.816;23.226;2022-09-17T00:08:02;94672.00;;;15.63;81.49
55315;BME280;41619;42.816;23.226;2022-09-17T00:10:28;94662.53;;;15.64;81.56
55315;BME280;41619;42.816;23.226;2022-09-17T00:12:54;94661.69;;;15.67;81.69
55315;BME280;41619;42.816;23.226;2022-09-17T00:15:19;94661.63;;;15.70;81.54
55315;BME280;41619;42.816;23.226;2022-09-17T00:17:44;94652.94;;;15.72;81.58
55315;BME280;41619;42.816;23.226;2022-09-17T00:20:10;94657.25;;;15.73;81.55
55315;BME280;41619;42.816;23.226;2022-09-17T00:22:38;94659.59;;;15.74;81.70
55315;BME280;41619;42.816;23.226;2022-09-17T00:25:05;94650.13;;;15.75;81.52
55315;BME280;41619;42.816;23.226;2022-09-17T00:27:32;94654.44;;;15.77;81.47
55315;BME280;41619;42.816;23.226;2022-09-17T00:29:58;94671.00;;;15.77;81.40
55315;BME280;41619;42.816;23.226;2022-09-17T00:32:23;94670.56;;;15.78;81.61
55315;BME280;41619;42.816;23.226;2022-09-17T00:34:50;94682.81;;;15.77;81.60
55315;BME280;41619;42.816;23.226;2022-09-17T00:37:17;94677.28;;;15.77;81.61
55315;BME280;41619;42.816;23.226;2022-09-17T00:39:43;94680.81;;;15.78;81.73
55315;BME280;41619;42.816;23.226;2022-09-17T00:42:11;94679.28;;;15.77;81.61
55315;BME280;41619;42.816;23.226;2022-09-17T00:50:00;94691.09;;;15.77;81.70
55315;BME280;41619;42.816;23.226;2022-09-17T00:52:32;94673.38;;;15.74;81.59
55315;BME280;41619;42.816;23.226;2022-09-17T00:55:05;94678.91;;;15.74;81.71
55315;BME280;41619;42.816;23.226;2022-09-17T00:57:32;94675.38;;;15.74;81.84
55315;BME280;41619;42.816;23.226;2022-09-17T00:59:58;94679.31;;;15.73;82.08
55315;BME280;41619;42.816;23.226;2022-09-17T01:02:24;94670.28;;;15.72;81.72
55315;BME280;41619;42.816;23.226;2022-09-17T01:04:49;94658.47;;;15.72;81.92
55315;BME280;41619;42.816;23.226;2022-09-17T01:07:22;94656.13;;;15.70;81.77
55315;BME280;41619;42.816;23.226;2022-09-17T01:13:46;94658.94;;;15.67;81.81
55315;BME280;41619;42.816;23.226;2022-09-17T01:16:19;94658.94;;;15.67;81.89
55315;BME280;41619;42.816;23.226;2022-09-17T01:25:21;94633.75;;;15.65;82.02
55315;BME280;41619;42.816;23.226;2022-09-17T01:28:19;94626.72;;;15.60;81.97
55315;BME280;41619;42.816;23.226;2022-09-17T01:34:17;94645.25;;;15.56;82.14
55315;BME280;41619;42.816;23.226;2022-09-17T01:47:33;94676.53;;;15.46;81.96
55315;BME280;41619;42.816;23.226;2022-09-17T01:50:08;94676.53;;;15.46;82.22
55315;BME280;41619;42.816;23.226;2022-09-17T01:52:37;94661.63;;;15.43;82.44
55315;BME280;41619;42.816;23.226;2022-09-17T01:55:07;94644.69;;;15.41;82.24
55315;BME280;41619;42.816;23.226;2022-09-17T02:00:09;94632.56;;;15.35;82.58
55315;BME280;41619;42.816;23.226;2022-09-17T02:02:39;94601.03;;;15.36;82.52
55315;BME280;41619;42.816;23.226;2022-09-17T02:05:14;94595.16;;;15.34;82.44
55315;BME280;41619;42.816;23.226;2022-09-17T02:07:44;94584.97;;;15.31;82.48
55315;BME280;41619;42.816;23.226;2022-09-17T02:10:15;94577.91;;;15.30;82.64
55315;BME280;41619;42.816;23.226;2022-09-17T02:12:45;94574.72;;;15.32;82.83
55315;BME280;41619;42.816;23.226;2022-09-17T02:15:17;94564.13;;;15.30;82.60
55315;BME280;41619;42.816;23.226;2022-09-17T02:17:52;94561.00;;;15.28;82.62
55315;BME280;41619;42.816;23.226;2022-09-17T02:20:23;94598.75;;;15.31;82.80
55315;BME280;41619;42.816;23.226;2022-09-17T02:23:01;94596.38;;;15.33;82.91
55315;BME280;41619;42.816;23.226;2022-09-17T02:25:39;94608.94;;;15.34;82.88
55315;BME280;41619;42.816;23.226;2022-09-17T02:30:43;94593.91;;;15.39;83.10
55315;BME280;41619;42.816;23.226;2022-09-17T02:33:11;94573.41;;;15.40;82.98
55315;BME280;41619;42.816;23.226;2022-09-17T02:35:38;94566.69;;;15.41;82.86
55315;BME280;41619;42.816;23.226;2022-09-17T02:38:04;94565.56;;;15.38;82.97
55315;BME280;41619;42.816;23.226;2022-09-17T02:40:38;94552.97;;;15.37;83.19
55315;BME280;41619;42.816;23.226;2022-09-17T02:52:03;94529.31;;;15.40;83.20
55315;BME280;41619;42.816;23.226;2022-09-17T02:54:58;94540.28;;;15.43;83.27
55315;BME280;41619;42.816;23.226;2022-09-17T02:57:41;94541.44;;;15.46;83.43
55315;BME280;41619;42.816;23.226;2022-09-17T03:00:15;94529.97;;;15.48;83.42
55315;BME280;41619;42.816;23.226;2022-09-17T03:02:45;94520.16;;;15.47;83.06
55315;BME280;41619;42.816;23.226;2022-09-17T03:05:12;94543.00;;;15.47;83.17
55315;BME280;41619;42.816;23.226;2022-09-17T03:07:39;94530.81;;;15.44;83.20
55315;BME280;41619;42.816;23.226;2022-09-17T03:10:05;94524.16;;;15.42;83.22
55315;BME280;41619;42.816;23.226;2022-09-17T03:12:31;94520.72;;;15.34;83.16
55315;BME280;41619;42.816;23.226;2022-09-17T03:14:56;94511.69;;;15.34;83.16
55315;BME280;41619;42.816;23.226;2022-09-17T03:17:22;94506.53;;;15.36;83.14
55315;BME280;41619;42.816;23.226;2022-09-17T03:19:47;94492.31;;;15.37;83.44
55315;BME280;41619;42.816;23.226;2022-09-17T03:22:12;94482.84;;;15.38;83.40
55315;BME280;41619;42.816;23.226;2022-09-17T03:24:38;94487.94;;;15.40;83.67
55315;BME280;41619;42.816;23.226;2022-09-17T03:27:04;94476.50;;;15.41;83.56
55315;BME280;41619;42.816;23.226;2022-09-17T03:29:29;94464.25;;;15.42;83.70
55315;BME280;41619;42.816;23.226;2022-09-17T03:31:54;94463.88;;;15.44;83.70
55315;BME280;41619;42.816;23.226;2022-09-17T03:34:20;94468.19;;;15.45;83.45
55315;BME280;41619;42.816;23.226;2022-09-17T03:36:45;94477.66;;;15.44;83.33
55315;BME280;41619;42.816;23.226;2022-09-17T03:39:11;94467.44;;;15.41;83.45
55315;BME280;41619;42.816;23.226;2022-09-17T03:41:37;94468.66;;;15.40;83.65
55315;BME280;41619;42.816;23.226;2022-09-17T03:44:02;94489.50;;;15.41;83.62
55315;BME280;41619;42.816;23.226;2022-09-17T03:46:28;94492.63;;;15.43;83.68
55315;BME280;41619;42.816;23.226;2022-09-17T03:48:53;94498.09;;;15.47;83.71
55315;BME280;41619;42.816;23.226;2022-09-17T03:51:18;94492.50;;;15.50;83.67
55315;BME280;41619;42.816;23.226;2022-09-17T03:53:44;94486.94;;;15.54;83.68
55315;BME280;41619;42.816;23.226;2022-09-17T03:56:09;94506.16;;;15.57;83.70
55315;BME280;41619;42.816;23.226;2022-09-17T03:58:34;94511.25;;;15.62;83.74
55315;BME280;41619;42.816;23.226;2022-09-17T04:01:00;94518.69;;;15.65;83.85
55315;BME280;41619;42.816;23.226;2022-09-17T04:03:27;94525.34;;;15.68;83.98
55315;BME280;41619;42.816;23.226;2022-09-17T04:05:53;94542.59;;;15.72;83.89
55315;BME280;41619;42.816;23.226;2022-09-17T04:08:19;94539.78;;;15.75;83.74
55315;BME280;41619;42.816;23.226;2022-09-17T04:10:45;94530.22;;;15.80;83.98
55315;BME280;41619;42.816;23.226;2022-09-17T04:13:11;94542.78;;;15.85;83.75
55315;BME280;41619;42.816;23.226;2022-09-17T04:15:37;94556.50;;;15.88;83.92
55315;BME280;41619;42.816;23.226;2022-09-17T04:18:02;94574.97;;;15.91;84.06
55315;BME280;41619;42.816;23.226;2022-09-17T04:20:28;94587.09;;;15.97;83.79
55315;BME280;41619;42.816;23.226;2022-09-17T04:22:53;94608.69;;;16.02;83.65
55315;BME280;41619;42.816;23.226;2022-09-17T04:25:19;94619.69;;;16.06;83.44
55315;BME280;41619;42.816;23.226;2022-09-17T04:27:45;94627.09;;;16.09;83.50
55315;BME280;41619;42.816;23.226;2022-09-17T04:30:12;94623.94;;;16.11;83.64
55315;BME280;41619;42.816;23.226;2022-09-17T04:32:38;94634.91;;;16.14;83.81
55315;BME280;41619;42.816;23.226;2022-09-17T04:35:03;94645.94;;;16.14;83.70
55315;BME280;41619;42.816;23.226;2022-09-17T04:37:29;94671.91;;;16.17;83.69
55315;BME280;41619;42.816;23.226;2022-09-17T04:39:54;94672.69;;;16.17;83.78
55315;BME280;41619;42.816;23.226;2022-09-17T04:42:20;94671.88;;;16.20;83.67
55315;BME280;41619;42.816;23.226;2022-09-17T04:44:45;94666.72;;;16.22;83.68
55315;BME280;41619;42.816;23.226;2022-09-17T04:47:10;94656.88;;;16.21;83.75
55315;BME280;41619;42.816;23.226;2022-09-17T04:49:36;94656.03;;;16.24;84.04
55315;BME280;41619;42.816;23.226;2022-09-17T04:52:01;94665.09;;;16.25;83.96
55315;BME280;41619;42.816;23.226;2022-09-17T04:54:27;94671.41;;;16.25;84.16
55315;BME280;41619;42.816;23.226;2022-09-17T04:56:52;94688.31;;;16.27;84.15
55315;BME280;41619;42.816;23.226;2022-09-17T04:59:17;94706.03;;;16.30;84.49
55315;BME280;41619;42.816;23.226;2022-09-17T05:01:43;94702.06;;;16.31;84.16
55315;BME280;41619;42.816;23.226;2022-09-17T05:04:09;94695.34;;;16.32;84.26
55315;BME280;41619;42.816;23.226;2022-09-17T05:06:34;94674.38;;;16.34;84.19
55315;BME280;41619;42.816;23.226;2022-09-17T05:09:00;94647.16;;;16.37;84.35
55315;BME280;41619;42.816;23.226;2022-09-17T05:11:27;94631.38;;;16.37;84.39
55315;BME280;41619;42.816;23.226;2022-09-17T05:13:52;94632.50;;;16.40;84.38
55315;BME280;41619;42.816;23.226;2022-09-17T05:16:18;94637.94;;;16.43;84.46
55315;BME280;41619;42.816;23.226;2022-09-17T05:18:43;94633.56;;;16.46;84.64
55315;BME280;41619;42.816;23.226;2022-09-17T05:21:09;94647.72;;;16.48;84.90
55315;BME280;41619;42.816;23.226;2022-09-17T05:23:34;94637.81;;;16.50;84.55
55315;BME280;41619;42.816;23.226;2022-09-17T05:26:00;94631.84;;;16.52;84.57
55315;BME280;41619;42.816;23.226;2022-09-17T05:28:26;94633.00;;;16.54;84.66
55315;BME280;41619;42.816;23.226;2022-09-17T05:30:52;94636.97;;;16.53;84.35
55315;BME280;41619;42.816;23.226;2022-09-17T05:33:17;94634.97;;;16.54;84.39
55315;BME280;41619;42.816;23.226;2022-09-17T05:35:44;94635.75;;;16.54;84.55
55315;BME280;41619;42.816;23.226;2022-09-17T05:38:09;94647.63;;;16.55;84.64
55315;BME280;41619;42.816;23.226;2022-09-17T05:40:35;94652.31;;;16.54;84.76
55315;BME280;41619;42.816;23.226;2022-09-17T05:43:04;94647.22;;;16.53;84.62
55315;BME280;41619;42.816;23.226;2022-09-17T05:45:31;94629.44;;;16.54;84.70
55315;BME280;41619;42.816;23.226;2022-09-17T05:47:58;94634.19;;;16.53;84.48
55315;BME280;41619;42.816;23.226;2022-09-17T05:50:25;94629.88;;;16.52;84.73
55315;BME280;41619;42.816;23.226;2022-09-17T05:52:52;94632.63;;;16.52;84.77
55315;BME280;41619;42.816;23.226;2022-09-17T05:55:18;94631.09;;;16.51;84.54
55315;BME280;41619;42.816;23.226;2022-09-17T05:57:44;94644.84;;;16.55;84.96
55315;BME280;41619;42.816;23.226;2022-09-17T06:00:10;94650.38;;;16.55;84.84
55315;BME280;41619;42.816;23.226;2022-09-17T06:02:36;94654.28;;;16.57;84.92
55315;BME280;41619;42.816;23.226;2022-09-17T06:05:03;94666.44;;;16.60;84.83
55315;BME280;41619;42.816;23.226;2022-09-17T06:07:28;94671.97;;;16.60;84.73
55315;BME280;41619;42.816;23.226;2022-09-17T06:09:54;94662.13;;;16.59;85.00
55315;BME280;41619;42.816;23.226;2022-09-17T06:12:19;94682.59;;;16.61;84.85
55315;BME280;41619;42.816;23.226;2022-09-17T06:14:45;94680.63;;;16.62;84.70
55315;BME280;41619;42.816;23.226;2022-09-17T06:17:10;94699.53;;;16.63;84.94
55315;BME280;41619;42.816;23.226;2022-09-17T06:19:35;94707.81;;;16.63;85.12
55315;BME280;41619;42.816;23.226;2022-09-17T06:22:01;94700.31;;;16.64;85.14
55315;BME280;41619;42.816;23.226;2022-09-17T06:24:26;94688.84;;;16.65;85.05
55315;BME280;41619;42.816;23.226;2022-09-17T06:26:52;94701.09;;;16.64;85.07
55315;BME280;41619;42.816;23.226;2022-09-17T06:29:17;94696.72;;;16.67;85.09
55315;BME280;41619;42.816;23.226;2022-09-17T06:31:43;94697.50;;;16.68;84.80
55315;BME280;41619;42.816;23.226;2022-09-17T06:34:09;94701.81;;;16.69;84.77
55315;BME280;41619;42.816;23.226;2022-09-17T06:36:35;94692.75;;;16.68;84.67
55315;BME280;41619;42.816;23.226;2022-09-17T06:39:00;94706.56;;;16.68;84.86
55315;BME280;41619;42.816;23.226;2022-09-17T06:41:25;94713.31;;;16.67;84.84
55315;BME280;41619;42.816;23.226;2022-09-17T06:43:54;94701.41;;;16.70;84.99
55315;BME280;41619;42.816;23.226;2022-09-17T06:46:19;94695.09;;;16.70;84.87
55315;BME280;41619;42.816;23.226;2022-09-17T06:48:44;94671.44;;;16.69;85.14
55315;BME280;41619;42.816;23.226;2022-09-17T06:51:11;94673.34;;;16.72;85.01
55315;BME280;41619;42.816;23.226;2022-09-17T06:53:38;94665.44;;;16.74;85.08
55315;BME280;41619;42.816;23.226;2022-09-17T06:56:05;94646.03;;;16.77;85.16
55315;BME280;41619;42.816;23.226;2022-09-17T06:58:30;94637.22;;;16.82;85.18
55315;BME280;41619;42.816;23.226;2022-09-17T07:01:00;94635.25;;;16.83;85.29
55315;BME280;41619;42.816;23.226;2022-09-17T07:03:26;94633.63;;;16.85;85.33
55315;BME280;41619;42.816;23.226;2022-09-17T07:05:52;94617.81;;;16.86;85.25
55315;BME280;41619;42.816;23.226;2022-09-17T07:08:17;94594.94;;;16.85;84.96
55315;BME280;41619;42.816;23.226;2022-09-17T07:10:43;94578.34;;;16.85;85.09
55315;BME280;41619;42.816;23.226;2022-09-17T07:13:08;94578.69;;;16.87;85.03
55315;BME280;41619;42.816;23.226;2022-09-17T07:15:33;94569.84;;;16.96;85.20
55315;BME280;41619;42.816;23.226;2022-09-17T07:17:59;94582.22;;;17.08;84.85
55315;BME280;41619;42.816;23.226;2022-09-17T07:20:26;94580.19;;;17.28;84.49
55315;BME280;41619;42.816;23.226;2022-09-17T07:22:56;94582.63;;;17.42;83.89
55315;BME280;41619;42.816;23.226;2022-09-17T07:25:22;94584.75;;;17.71;83.50
55315;BME280;41619;42.816;23.226;2022-09-17T07:27:48;94598.72;;;18.29;83.46
55315;BME280;41619;42.816;23.226;2022-09-17T07:30:14;94606.78;;;20.50;81.72
55315;BME280;41619;42.816;23.226;2022-09-17T07:32:39;94612.00;;;21.88;75.74
55315;BME280;41619;42.816;23.226;2022-09-17T07:35:05;94621.56;;;22.18;72.51
55315;BME280;41619;42.816;23.226;2022-09-17T07:37:31;94607.59;;;22.09;71.82
55315;BME280;41619;42.816;23.226;2022-09-17T07:39:56;94604.94;;;21.65;71.17
55315;BME280;41619;42.816;23.226;2022-09-17T07:42:22;94606.78;;;21.59;71.28
55315;BME280;41619;42.816;23.226;2022-09-17T07:44:47;94610.03;;;21.36;70.87
55315;BME280;41619;42.816;23.226;2022-09-17T07:47:12;94597.56;;;20.97;71.72
55315;BME280;41619;42.816;23.226;2022-09-17T07:49:38;94602.84;;;20.60;72.77
55315;BME280;41619;42.816;23.226;2022-09-17T07:52:03;94602.03;;;20.25;73.56
55315;BME280;41619;42.816;23.226;2022-09-17T07:54:31;94603.31;;;19.99;74.32
55315;BME280;41619;42.816;23.226;2022-09-17T07:56:57;94602.47;;;19.76;75.10
55315;BME280;41619;42.816;23.226;2022-09-17T07:59:23;94583.03;;;19.63;75.63
55315;BME280;41619;42.816;23.226;2022-09-17T08:01:48;94578.13;;;19.67;76.28
55315;BME280;41619;42.816;23.226;2022-09-17T08:04:14;94576.81;;;19.72;76.15
55315;BME280;41619;42.816;23.226;2022-09-17T08:06:39;94572.91;;;19.70;76.07
55315;BME280;41619;42.816;23.226;2022-09-17T08:09:05;94560.38;;;19.65;76.22
55315;BME280;41619;42.816;23.226;2022-09-17T08:11:31;94559.38;;;19.59;76.19
55315;BME280;41619;42.816;23.226;2022-09-17T08:13:57;94576.47;;;19.57;76.54
55315;BME280;41619;42.816;23.226;2022-09-17T08:16:23;94566.81;;;19.62;76.28
55315;BME280;41619;42.816;23.226;2022-09-17T08:18:53;94565.03;;;19.68;76.18
55315;BME280;41619;42.816;23.226;2022-09-17T08:21:19;94556.03;;;19.77;76.24
55315;BME280;41619;42.816;23.226;2022-09-17T08:23:46;94554.25;;;19.83;76.13
55315;BME280;41619;42.816;23.226;2022-09-17T08:26:16;94555.22;;;19.89;76.21
55315;BME280;41619;42.816;23.226;2022-09-17T08:28:47;94544.03;;;19.92;76.11
55315;BME280;41619;42.816;23.226;2022-09-17T08:31:15;94547.78;;;19.99;76.02
55315;BME280;41619;42.816;23.226;2022-09-17T08:33:41;94546.88;;;20.02;76.14
55315;BME280;41619;42.816;23.226;2022-09-17T08:36:10;94554.44;;;20.01;76.09
55315;BME280;41619;42.816;23.226;2022-09-17T08:38:36;94546.69;;;19.96;76.04
55315;BME280;41619;42.816;23.226;2022-09-17T08:47:00;94539.34;;;19.89;75.81
55315;BME280;41619;42.816;23.226;2022-09-17T08:49:49;94542.47;;;19.91;75.61
55315;BME280;41619;42.816;23.226;2022-09-17T08:55:14;94546.69;;;19.71;75.06
55315;BME280;41619;42.816;23.226;2022-09-17T08:58:23;94553.38;;;19.60;74.87
55315;BME280;41619;42.816;23.226;2022-09-17T09:05:54;94551.47;;;19.32;75.27
55315;BME280;41619;42.816;23.226;2022-09-17T09:08:33;94564.78;;;19.24;75.08
55315;BME280;41619;42.816;23.226;2022-09-17T09:11:03;94566.66;;;19.15;75.53
55315;BME280;41619;42.816;23.226;2022-09-17T09:13:37;94567.31;;;19.06;75.90
55315;BME280;41619;42.816;23.226;2022-09-17T09:16:06;94563.97;;;18.98;76.39
55315;BME280;41619;42.816;23.226;2022-09-17T09:18:39;94576.03;;;18.92;76.75
55315;BME280;41619;42.816;23.226;2022-09-17T09:29:23;94591.50;;;18.64;77.58
55315;BME280;41619;42.816;23.226;2022-09-17T09:34:28;94602.81;;;18.53;77.80
55315;BME280;41619;42.816;23.226;2022-09-17T09:37:11;94623.09;;;18.50;77.78
55315;BME280;41619;42.816;23.226;2022-09-17T09:39:39;94635.50;;;18.45;77.98
55315;BME280;41619;42.816;23.226;2022-09-17T09:44:34;94659.81;;;18.38;78.51
55315;BME280;41619;42.816;23.226;2022-09-17T10:01:00;94612.94;;;18.14;79.36
55315;BME280;41619;42.816;23.226;2022-09-17T10:03:30;94606.63;;;18.14;79.43
55315;BME280;41619;42.816;23.226;2022-09-17T10:08:24;94550.56;;;18.10;79.95
55315;BME280;41619;42.816;23.226;2022-09-17T10:13:28;94465.00;;;17.99;80.19
55315;BME280;41619;42.816;23.226;2022-09-17T10:15:55;94482.94;;;17.95;80.36
55315;BME280;41619;42.816;23.226;2022-09-17T10:18:25;94506.72;;;17.92;80.54
55315;BME280;41619;42.816;23.226;2022-09-17T10:20:58;94523.78;;;17.91;80.59
55315;BME280;41619;42.816;23.226;2022-09-17T10:23:27;94518.69;;;17.89;81.05
55315;BME280;41619;42.816;23.226;2022-09-17T10:25:54;94510.38;;;17.89;81.01
55315;BME280;41619;42.816;23.226;2022-09-17T10:28:26;94505.19;;;17.91;81.38
55315;BME280;41619;42.816;23.226;2022-09-17T10:30:55;94497.66;;;17.92;81.37
55315;BME280;41619;42.816;23.226;2022-09-17T10:33:24;94510.28;;;17.93;81.38
55315;BME280;41619;42.816;23.226;2022-09-17T10:38:57;94529.91;;;17.98;81.51
55315;BME280;41619;42.816;23.226;2022-09-17T10:41:55;94543.19;;;18.03;81.50
55315;BME280;41619;42.816;23.226;2022-09-17T10:44:22;94547.81;;;18.10;81.47
55315;BME280;41619;42.816;23.226;2022-09-17T10:46:49;94561.34;;;18.21;81.27
55315;BME280;41619;42.816;23.226;2022-09-17T10:49:36;94550.00;;;18.31;81.06
55315;BME280;41619;42.816;23.226;2022-09-17T10:57:23;94564.34;;;18.71;81.16
55315;BME280;41619;42.816;23.226;2022-09-17T11:08:24;94554.28;;;19.57;80.52
55315;BME280;41619;42.816;23.226;2022-09-17T11:11:05;94561.03;;;19.69;80.61
55315;BME280;41619;42.816;23.226;2022-09-17T11:16:50;94567.47;;;19.91;80.07
55315;BME280;41619;42.816;23.226;2022-09-17T11:25:17;94556.91;;;20.46;79.35
55315;BME280;41619;42.816;23.226;2022-09-17T11:30:42;94550.75;;;20.73;79.18
55315;BME280;41619;42.816;23.226;2022-09-17T11:36:03;94554.16;;;20.77;78.88
55315;BME280;41619;42.816;23.226;2022-09-17T11:38:39;94549.78;;;20.67;78.70
55315;BME280;41619;42.816;23.226;2022-09-17T11:41:13;94538.59;;;20.58;78.78
55315;BME280;41619;42.816;23.226;2022-09-17T11:43:51;94531.75;;;20.50;79.23
55315;BME280;41619;42.816;23.226;2022-09-17T11:46:24;94531.53;;;20.44;78.77
55315;BME280;41619;42.816;23.226;2022-09-17T11:49:04;94517.88;;;20.37;78.73
55315;BME280;41619;42.816;23.226;2022-09-17T11:51:39;94504.69;;;20.29;78.67
55315;BME280;41619;42.816;23.226;2022-09-17T11:57:14;94498.06;;;20.13;79.05
55315;BME280;41619;42.816;23.226;2022-09-17T12:07:59;94504.38;;;19.92;78.56
55315;BME280;41619;42.816;23.226;2022-09-17T12:10:50;94494.91;;;19.89;78.65
55315;BME280;41619;42.816;23.226;2022-09-17T12:13:39;94511.38;;;19.84;78.17
55315;BME280;41619;42.816;23.226;2022-09-17T12:18:47;94513.63;;;19.63;75.49
55315;BME280;41619;42.816;23.226;2022-09-17T12:21:18;94502.88;;;19.53;75.25
55315;BME280;41619;42.816;23.226;2022-09-17T12:42:54;94483.22;;;19.09;75.60
55315;BME280;41619;42.816;23.226;2022-09-17T12:53:29;94480.00;;;18.85;75.35
55315;BME280;41619;42.816;23.226;2022-09-17T12:56:02;94473.47;;;18.79;75.32
55315;BME280;41619;42.816;23.226;2022-09-17T13:12:25;94444.34;;;18.58;77.35
55315;BME280;41619;42.816;23.226;2022-09-17T13:20:43;94426.06;;;18.48;77.42
55315;BME280;41619;42.816;23.226;2022-09-17T13:23:13;94422.94;;;18.46;77.79
55315;BME280;41619;42.816;23.226;2022-09-17T13:25:49;94419.50;;;18.42;77.78
55315;BME280;41619;42.816;23.226;2022-09-17T13:28:18;94415.59;;;18.39;78.01
55315;BME280;41619;42.816;23.226;2022-09-17T13:31:00;94409.41;;;18.35;77.92
55315;BME280;41619;42.816;23.226;2022-09-17T13:39:11;94391.44;;;18.27;76.39
55315;BME280;41619;42.816;23.226;2022-09-17T13:42:06;94393.13;;;18.25;76.13
55315;BME280;41619;42.816;23.226;2022-09-17T13:44:38;94388.03;;;18.23;76.27
55315;BME280;41619;42.816;23.226;2022-09-17T13:50:09;94359.63;;;18.19;77.04
55315;BME280;41619;42.816;23.226;2022-09-17T13:52:42;94359.41;;;18.13;77.56
55315;BME280;41619;42.816;23.226;2022-09-17T13:57:59;94326.72;;;18.08;78.05
55315;BME280;41619;42.816;23.226;2022-09-17T14:00:47;94327.19;;;18.07;78.12
55315;BME280;41619;42.816;23.226;2022-09-17T14:17:00;94360.25;;;17.98;79.20
55315;BME280;41619;42.816;23.226;2022-09-17T14:19:32;94357.94;;;17.96;79.12
55315;BME280;41619;42.816;23.226;2022-09-17T14:22:11;94356.38;;;17.95;79.20
55315;BME280;41619;42.816;23.226;2022-09-17T14:30:14;94335.88;;;17.93;79.26
55315;BME280;41619;42.816;23.226;2022-09-17T14:35:36;94315.75;;;17.92;78.52
55315;BME280;41619;42.816;23.226;2022-09-17T14:38:22;94305.13;;;17.91;78.65
55315;BME280;41619;42.816;23.226;2022-09-17T14:41:03;94290.94;;;17.89;79.05
55315;BME280;41619;42.816;23.226;2022-09-17T14:46:27;94289.91;;;17.82;79.70
55315;BME280;41619;42.816;23.226;2022-09-17T14:48:53;94290.34;;;17.81;79.59
55315;BME280;41619;42.816;23.226;2022-09-17T14:53:49;94306.28;;;17.77;80.15
55315;BME280;41619;42.816;23.226;2022-09-17T14:56:31;94283.03;;;17.74;80.03
55315;BME280;41619;42.816;23.226;2022-09-17T14:58:58;94267.66;;;17.73;80.19
55315;BME280;41619;42.816;23.226;2022-09-17T15:01:27;94266.56;;;17.71;80.43
55315;BME280;41619;42.816;23.226;2022-09-17T15:06:37;94260.69;;;17.69;80.70
55315;BME280;41619;42.816;23.226;2022-09-17T15:09:02;94260.31;;;17.67;81.02
55315;BME280;41619;42.816;23.226;2022-09-17T15:11:30;94248.44;;;17.66;81.00
55315;BME280;41619;42.816;23.226;2022-09-17T15:13:56;94242.59;;;17.64;81.03
55315;BME280;41619;42.816;23.226;2022-09-17T15:16:25;94233.50;;;17.64;81.17
55315;BME280;41619;42.816;23.226;2022-09-17T15:18:51;94220.91;;;17.63;81.22
55315;BME280;41619;42.816;23.226;2022-09-17T15:21:38;94220.13;;;17.62;81.23
55315;BME280;41619;42.816;23.226;2022-09-17T15:24:20;94231.63;;;17.61;81.49
55315;BME280;41619;42.816;23.226;2022-09-17T15:26:51;94224.53;;;17.60;81.47
55315;BME280;41619;42.816;23.226;2022-09-17T15:29:20;94240.03;;;17.57;81.40
55315;BME280;41619;42.816;23.226;2022-09-17T15:31:47;94239.72;;;17.55;81.74
55315;BME280;41619;42.816;23.226;2022-09-17T15:34:13;94242.13;;;17.53;81.60
55315;BME280;41619;42.816;23.226;2022-09-17T15:36:38;94241.38;;;17.52;81.58
55315;BME280;41619;42.816;23.226;2022-09-17T15:39:56;94233.84;;;17.53;81.47
55315;BME280;41619;42.816;23.226;2022-09-17T15:42:28;94241.38;;;17.52;81.37
55315;BME280;41619;42.816;23.226;2022-09-17T15:50:34;94253.66;;;17.51;81.07
55315;BME280;41619;42.816;23.226;2022-09-17T15:55:35;94274.44;;;17.56;79.82
55315;BME280;41619;42.816;23.226;2022-09-17T15:58:18;94278.31;;;17.59;79.55
55315;BME280;41619;42.816;23.226;2022-09-17T16:00:44;94271.13;;;17.61;79.41
55315;BME280;41619;42.816;23.226;2022-09-17T16:05:58;94265.25;;;17.59;79.26
55315;BME280;41619;42.816;23.226;2022-09-17T16:08:23;94229.31;;;17.59;79.40
55315;BME280;41619;42.816;23.226;2022-09-17T16:10:57;94231.28;;;17.59;79.53
55315;BME280;41619;42.816;23.226;2022-09-17T16:13:23;94226.97;;;17.58;79.65
55315;BME280;41619;42.816;23.226;2022-09-17T16:15:48;94236.50;;;17.56;79.76
55315;BME280;41619;42.816;23.226;2022-09-17T16:18:14;94238.16;;;17.54;79.96
55315;BME280;41619;42.816;23.226;2022-09-17T16:20:40;94235.84;;;17.52;79.99
55315;BME280;41619;42.816;23.226;2022-09-17T16:23:05;94212.47;;;17.53;79.46
55315;BME280;41619;42.816;23.226;2022-09-17T16:25:30;94221.56;;;17.54;79.31
55315;BME280;41619;42.816;23.226;2022-09-17T16:30:23;94207.94;;;17.60;78.10
55315;BME280;41619;42.816;23.226;2022-09-17T16:32:49;94194.88;;;17.60;78.15
55315;BME280;41619;42.816;23.226;2022-09-17T16:35:20;94186.59;;;17.60;77.84
55315;BME280;41619;42.816;23.226;2022-09-17T16:37:51;94179.06;;;17.61;77.32
55315;BME280;41619;42.816;23.226;2022-09-17T16:40:17;94181.38;;;17.62;76.76
55315;BME280;41619;42.816;23.226;2022-09-17T16:42:43;94170.66;;;17.64;76.22
55315;BME280;41619;42.816;23.226;2022-09-17T16:45:09;94180.16;;;17.63;76.03
55315;BME280;41619;42.816;23.226;2022-09-17T16:47:36;94173.97;;;17.59;76.24
55315;BME280;41619;42.816;23.226;2022-09-17T16:50:10;94177.28;;;17.54;76.48
55315;BME280;41619;42.816;23.226;2022-09-17T16:52:36;94175.50;;;17.47;76.81
55315;BME280;41619;42.816;23.226;2022-09-17T16:55:02;94182.81;;;17.41;77.27
55315;BME280;41619;42.816;23.226;2022-09-17T16:57:29;94187.22;;;17.39;77.43